sensor_id;sensor_type;location;lat;lon;timestamp;pressure;altitude;pressure_sealevel;temperature;humidity
62634;BME280;48704;50.534;6.442;2024-01-16T00:00:31;94725.28;;;-3.01;100.00
62634;BME280;48704;50.534;6.442;2024-01-16T00:02:56;94721.03;;;-3.02;100.00
62634;BME280;48704;50.534;6.442;2024-01-16T00:05:22;94724.13;;;-3.00;100.00
62634;BME280;48704;50.534;6.442;2024-01-16T00:07:47;94720.66;;;-3.04;100.00
62634;BME280;48704;50.534;6.442;2024-01-16T00:10:12;94721.44;;;-3.04;100.00
62634;BME280;48704;50.534;6.442;2024-01-16T00:12:38;94727.66;;;-3.03;100.00
62634;BME280;48704;50.534;6.442;2024-01-16T00:15:06;94728.84;;;-3.04;100.00
62634;BME280;48704;50.534;6.442;2024-01-16T00:17:31;94739.78;;;-3.08;100.00
62634;BME280;48704;50.534;6.442;2024-01-16T00:19:57;94730.13;;;-3.12;100.00
62634;BME280;48704;50.534;6.442;2024-01-16T00:22:26;94739.84;;;-3.11;100.00
62634;BME280;48704;50.534;6.442;2024-01-16T00:24:51;94729.75;;;-3.14;100.00
62634;BME280;48704;50.534;6.442;2024-01-16T00:27:17;94736.75;;;-3.13;100.00
62634;BME280;48704;50.534;6.442;2024-01-16T00:29:42;94739.88;;;-3.15;100.00
62634;BME280;48704;50.534;6.442;2024-01-16T00:32:08;94732.13;;;-3.16;100.00
62634;BME280;48704;50.534;6.442;2024-01-16T00:34:33;94742.19;;;-3.13;100.00
62634;BME280;48704;50.534;6.442;2024-01-16T00:36:58;94732.47;;;-3.14;100.00
62634;BME280;48704;50.534;6.442;2024-01-16T00:39:24;94745.75;;;-3.16;100.00
62634;BME280;48704;50.534;6.442;2024-01-16T00:41:49;94749.19;;;-3.12;100.00
62634;BME280;48704;50.534;6.442;2024-01-16T00:44:14;94746.91;;;-3.17;100.00
62634;BME280;48704;50.534;6.442;2024-01-16T00:46:40;94760.91;;;-3.15;100.00
62634;BME280;48704;50.534;6.442;2024-01-16T00:49:05;94758.19;;;-3.15;100.00
62634;BME280;48704;50.534;6.442;2024-01-16T00:51:32;94766.34;;;-3.15;100.00
62634;BME280;48704;50.534;6.442;2024-01-16T00:53:58;94766.31;;;-3.12;100.00
62634;BME280;48704;50.534;6.442;2024-01-16T00:56:23;94764.34;;;-3.11;100.00
62634;BME280;48704;50.534;6.442;2024-01-16T00:58:48;94765.53;;;-3.12;100.00
62634;BME280;48704;50.534;6.442;2024-01-16T01:01:14;94765.53;;;-3.12;100.00
62634;BME280;48704;50.534;6.442;2024-01-16T01:03:39;94765.59;;;-3.16;100.00
62634;BME280;48704;50.534;6.442;2024-01-16T01:06:05;94768.72;;;-3.17;100.00
62634;BME280;48704;50.534;6.442;2024-01-16T01:08:30;94766.72;;;-3.13;100.00
62634;BME280;48704;50.534;6.442;2024-01-16T01:10:55;94760.88;;;-3.12;100.00
62634;BME280;48704;50.534;6.442;2024-01-16T01:13:21;94762.44;;;-3.14;100.00
62634;BME280;48704;50.534;6.442;2024-01-16T01:15:47;94776.06;;;-3.14;100.00
62634;BME280;48704;50.534;6.442;2024-01-16T01:18:12;94763.25;;;-3.17;100.00
62634;BME280;48704;50.534;6.442;2024-01-16T01:20:38;94779.66;;;-3.21;100.00
62634;BME280;48704;50.534;6.442;2024-01-16T01:23:04;94781.97;;;-3.19;100.00
62634;BME280;48704;50.534;6.442;2024-01-16T01:25:29;94784.34;;;-3.21;100.00
62634;BME280;48704;50.534;6.442;2024-01-16T01:27:54;94780.06;;;-3.22;100.00
62634;BME280;48704;50.534;6.442;2024-01-16T01:30:20;94780.06;;;-3.22;100.00
62634;BME280;48704;50.534;6.442;2024-01-16T01:32:45;94782.47;;;-3.28;100.00
62634;BME280;48704;50.534;6.442;2024-01-16T01:35:10;94784.38;;;-3.25;100.00
62634;BME280;48704;50.534;6.442;2024-01-16T01:37:37;94788.25;;;-3.22;100.00
62634;BME280;48704;50.534;6.442;2024-01-16T01:40:02;94778.53;;;-3.23;100.00
62634;BME280;48704;50.534;6.442;2024-01-16T01:42:28;94785.56;;;-3.26;100.00
62634;BME280;48704;50.534;6.442;2024-01-16T01:44:53;94788.69;;;-3.27;100.00
62634;BME280;48704;50.534;6.442;2024-01-16T01:47:19;94801.16;;;-3.30;100.00
62634;BME280;48704;50.534;6.442;2024-01-16T01:49:45;94792.97;;;-3.26;100.00
62634;BME280;48704;50.534;6.442;2024-01-16T01:52:10;94791.41;;;-3.27;100.00
62634;BME280;48704;50.534;6.442;2024-01-16T01:54:37;94787.59;;;-3.33;100.00
62634;BME280;48704;50.534;6.442;2024-01-16T01:57:04;94778.22;;;-3.32;100.00
62634;BME280;48704;50.534;6.442;2024-01-16T01:59:30;94786.78;;;-3.30;100.00
62634;BME280;48704;50.534;6.442;2024-01-16T02:01:56;94784.09;;;-3.34;100.00
62634;BME280;48704;50.534;6.442;2024-01-16T02:04:22;94785.22;;;-3.31;100.00
62634;BME280;48704;50.534;6.442;2024-01-16T02:06:48;94786.06;;;-3.34;100.00
62634;BME280;48704;50.534;6.442;2024-01-16T02:09:14;94786.78;;;-3.30;100.00
62634;BME280;48704;50.534;6.442;2024-01-16T02:11:40;94792.22;;;-3.30;100.00
62634;BME280;48704;50.534;6.442;2024-01-16T02:14:06;94793.41;;;-3.31;100.00
62634;BME280;48704;50.534;6.442;2024-01-16T02:16:36;94792.69;;;-3.35;100.00
62634;BME280;48704;50.534;6.442;2024-01-16T02:19:03;94798.47;;;-3.33;100.00
62634;BME280;48704;50.534;6.442;2024-01-16T02:21:37;94792.22;;;-3.30;100.00
62634;BME280;48704;50.534;6.442;2024-01-16T02:24:07;94787.97;;;-3.31;100.00
62634;BME280;48704;50.534;6.442;2024-01-16T02:26:33;94799.22;;;-3.29;100.00
62634;BME280;48704;50.534;6.442;2024-01-16T02:29:01;94800.75;;;-3.28;100.00
62634;BME280;48704;50.534;6.442;2024-01-16T02:31:26;94792.22;;;-3.30;100.00
62634;BME280;48704;50.534;6.442;2024-01-16T02:33:51;94793.03;;;-3.33;100.00
62634;BME280;48704;50.534;6.442;2024-01-16T02:36:17;94791.44;;;-3.31;100.00
62634;BME280;48704;50.534;6.442;2024-01-16T02:38:42;94784.53;;;-3.35;100.00
62634;BME280;48704;50.534;6.442;2024-01-16T02:41:08;94783.78;;;-3.40;100.00
62634;BME280;48704;50.534;6.442;2024-01-16T02:43:33;94787.59;;;-3.33;100.00
62634;BME280;48704;50.534;6.442;2024-01-16T02:45:58;94792.34;;;-3.38;100.00
62634;BME280;48704;50.534;6.442;2024-01-16T02:48:24;94772.22;;;-3.47;100.00
62634;BME280;48704;50.534;6.442;2024-01-16T02:50:49;94773.72;;;-3.43;100.00
62634;BME280;48704;50.534;6.442;2024-01-16T02:53:14;94770.22;;;-3.43;100.00
62634;BME280;48704;50.534;6.442;2024-01-16T02:55:40;94771.34;;;-3.41;100.00
62634;BME280;48704;50.534;6.442;2024-01-16T02:58:05;94773.72;;;-3.43;100.00
62634;BME280;48704;50.534;6.442;2024-01-16T03:00:30;94770.63;;;-3.45;100.00
62634;BME280;48704;50.534;6.442;2024-01-16T03:02:56;94777.25;;;-3.46;100.00
62634;BME280;48704;50.534;6.442;2024-01-16T03:05:21;94782.69;;;-3.46;100.00
62634;BME280;48704;50.534;6.442;2024-01-16T03:07:47;94779.16;;;-3.43;100.00
62634;BME280;48704;50.534;6.442;2024-01-16T03:10:12;94785.00;;;-3.44;100.00
62634;BME280;48704;50.534;6.442;2024-01-16T03:12:37;94786.97;;;-3.45;100.00
62634;BME280;48704;50.534;6.442;2024-01-16T03:15:03;94781.91;;;-3.46;100.00
62634;BME280;48704;50.534;6.442;2024-01-16T03:17:28;94774.16;;;-3.48;100.00
62634;BME280;48704;50.534;6.442;2024-01-16T03:19:54;94769.13;;;-3.49;100.00
62634;BME280;48704;50.534;6.442;2024-01-16T03:22:19;94775.34;;;-3.49;100.00
62634;BME280;48704;50.534;6.442;2024-01-16T03:24:44;94771.53;;;-3.58;100.00
62634;BME280;48704;50.534;6.442;2024-01-16T03:27:10;94771.44;;;-3.48;100.00
62634;BME280;48704;50.534;6.442;2024-01-16T03:29:35;94777.63;;;-3.44;100.00
62634;BME280;48704;50.534;6.442;2024-01-16T03:32:01;94765.19;;;-3.45;100.00
62634;BME280;48704;50.534;6.442;2024-01-16T03:34:26;94763.63;;;-3.46;100.00
62634;BME280;48704;50.534;6.442;2024-01-16T03:36:52;94773.88;;;-3.57;100.00
62634;BME280;48704;50.534;6.442;2024-01-16T03:39:17;94777.78;;;-3.58;100.00
62634;BME280;48704;50.534;6.442;2024-01-16T03:41:43;94772.25;;;-3.51;100.00
62634;BME280;48704;50.534;6.442;2024-01-16T03:44:08;94768.78;;;-3.55;100.00
62634;BME280;48704;50.534;6.442;2024-01-16T03:46:34;94773.50;;;-3.59;100.00
62634;BME280;48704;50.534;6.442;2024-01-16T03:48:59;94774.63;;;-3.56;100.00
62634;BME280;48704;50.534;6.442;2024-01-16T03:51:25;94773.50;;;-3.59;100.00
62634;BME280;48704;50.534;6.442;2024-01-16T03:53:50;94794.97;;;-3.68;100.00
62634;BME280;48704;50.534;6.442;2024-01-16T03:56:16;94780.84;;;-3.56;100.00
62634;BME280;48704;50.534;6.442;2024-01-16T03:58:41;94777.84;;;-3.65;100.00
62634;BME280;48704;50.534;6.442;2024-01-16T04:01:07;94770.06;;;-3.66;100.00
62634;BME280;48704;50.534;6.442;2024-01-16T04:03:32;94774.75;;;-3.67;100.00
62634;BME280;48704;50.534;6.442;2024-01-16T04:05:59;94781.00;;;-3.70;100.00
62634;BME280;48704;50.534;6.442;2024-01-16T04:08:24;94770.22;;;-3.77;100.00
62634;BME280;48704;50.534;6.442;2024-01-16T04:10:49;94776.81;;;-3.75;100.00
62634;BME280;48704;50.534;6.442;2024-01-16T04:13:14;94767.88;;;-3.75;100.00
62634;BME280;48704;50.534;6.442;2024-01-16T04:15:40;94776.47;;;-3.80;100.00
62634;BME280;48704;50.534;6.442;2024-01-16T04:18:06;94782.63;;;-3.73;100.00
62634;BME280;48704;50.534;6.442;2024-01-16T04:20:31;94764.41;;;-3.79;100.00
62634;BME280;48704;50.534;6.442;2024-01-16T04:22:57;94766.31;;;-3.76;100.00
62634;BME280;48704;50.534;6.442;2024-01-16T04:25:23;94767.50;;;-3.77;100.00
62634;BME280;48704;50.534;6.442;2024-01-16T04:27:48;94772.56;;;-3.79;100.00
62634;BME280;48704;50.534;6.442;2024-01-16T04:30:14;94775.28;;;-3.79;100.00
62634;BME280;48704;50.534;6.442;2024-01-16T04:32:39;94772.53;;;-3.76;100.00
62634;BME280;48704;50.534;6.442;2024-01-16T04:35:05;94783.06;;;-3.78;100.00
62634;BME280;48704;50.534;6.442;2024-01-16T04:37:30;94776.44;;;-3.77;100.00
62634;BME280;48704;50.534;6.442;2024-01-16T04:39:55;94769.06;;;-3.80;100.00
62634;BME280;48704;50.534;6.442;2024-01-16T04:42:22;94765.53;;;-3.77;100.00
62634;BME280;48704;50.534;6.442;2024-01-16T04:44:48;94771.81;;;-3.83;100.00
62634;BME280;48704;50.534;6.442;2024-01-16T04:47:13;94767.94;;;-3.82;100.00
62634;BME280;48704;50.534;6.442;2024-01-16T04:49:41;94767.97;;;-3.86;100.00
62634;BME280;48704;50.534;6.442;2024-01-16T04:52:06;94752.47;;;-3.92;100.00
62634;BME280;48704;50.534;6.442;2024-01-16T04:54:32;94747.81;;;-3.92;100.00
62634;BME280;48704;50.534;6.442;2024-01-16T04:56:57;94760.44;;;-4.09;100.00
62634;BME280;48704;50.534;6.442;2024-01-16T04:59:23;94749.56;;;-4.09;100.00
62634;BME280;48704;50.534;6.442;2024-01-16T05:01:48;94748.00;;;-4.10;100.00
62634;BME280;48704;50.534;6.442;2024-01-16T05:04:13;94756.59;;;-4.15;100.00
62634;BME280;48704;50.534;6.442;2024-01-16T05:06:39;94748.88;;;-4.20;100.00
62634;BME280;48704;50.534;6.442;2024-01-16T05:09:04;94750.50;;;-4.29;100.00
62634;BME280;48704;50.534;6.442;2024-01-16T05:11:29;94744.28;;;-4.30;100.00
62634;BME280;48704;50.534;6.442;2024-01-16T05:13:55;94746.69;;;-4.39;100.00
62634;BME280;48704;50.534;6.442;2024-01-16T05:16:27;94749.84;;;-4.44;100.00
62634;BME280;48704;50.534;6.442;2024-01-16T05:18:53;94739.06;;;-4.51;100.00
62634;BME280;48704;50.534;6.442;2024-01-16T05:21:19;94735.25;;;-4.61;100.00
62634;BME280;48704;50.534;6.442;2024-01-16T05:23:44;94733.34;;;-4.67;100.00
62634;BME280;48704;50.534;6.442;2024-01-16T05:26:10;94730.63;;;-4.67;100.00
62634;BME280;48704;50.534;6.442;2024-01-16T05:28:35;94726.75;;;-4.66;100.00
62634;BME280;48704;50.534;6.442;2024-01-16T05:31:00;94719.00;;;-4.72;100.00
62634;BME280;48704;50.534;6.442;2024-01-16T05:33:26;94715.25;;;-4.85;100.00
62634;BME280;48704;50.534;6.442;2024-01-16T05:35:51;94714.47;;;-4.85;100.00
62634;BME280;48704;50.534;6.442;2024-01-16T05:38:16;94709.84;;;-4.88;100.00
62634;BME280;48704;50.534;6.442;2024-01-16T05:40:42;94718.41;;;-4.93;100.00
62634;BME280;48704;50.534;6.442;2024-01-16T05:43:07;94717.66;;;-4.94;100.00
62634;BME280;48704;50.534;6.442;2024-01-16T05:45:32;94722.31;;;-4.98;100.00
62634;BME280;48704;50.534;6.442;2024-01-16T05:47:57;94712.25;;;-5.01;100.00
62634;BME280;48704;50.534;6.442;2024-01-16T05:50:23;94713.09;;;-5.11;100.00
62634;BME280;48704;50.534;6.442;2024-01-16T05:52:48;94723.97;;;-5.15;100.00
62634;BME280;48704;50.534;6.442;2024-01-16T05:55:13;94717.84;;;-5.22;100.00
62634;BME280;48704;50.534;6.442;2024-01-16T05:57:39;94716.22;;;-5.16;100.00
62634;BME280;48704;50.534;6.442;2024-01-16T06:00:05;94720.56;;;-5.22;100.00
62634;BME280;48704;50.534;6.442;2024-01-16T06:02:31;94709.31;;;-5.24;100.00
62634;BME280;48704;50.534;6.442;2024-01-16T06:04:56;94713.97;;;-5.21;100.00
62634;BME280;48704;50.534;6.442;2024-01-16T06:07:21;94717.84;;;-5.26;100.00
62634;BME280;48704;50.534;6.442;2024-01-16T06:09:47;94721.00;;;-5.34;100.00
62634;BME280;48704;50.534;6.442;2024-01-16T06:12:12;94719.44;;;-5.32;100.00
62634;BME280;48704;50.534;6.442;2024-01-16T06:14:38;94724.50;;;-5.34;100.00
62634;BME280;48704;50.534;6.442;2024-01-16T06:17:03;94721.78;;;-5.38;100.00
62634;BME280;48704;50.534;6.442;2024-01-16T06:19:31;94724.16;;;-5.47;100.00
62634;BME280;48704;50.534;6.442;2024-01-16T06:21:56;94724.19;;;-5.54;100.00
62634;BME280;48704;50.534;6.442;2024-01-16T06:24:22;94728.06;;;-5.55;100.00
62634;BME280;48704;50.534;6.442;2024-01-16T06:26:47;94717.22;;;-5.51;100.00
62634;BME280;48704;50.534;6.442;2024-01-16T06:29:12;94725.75;;;-5.56;100.00
62634;BME280;48704;50.534;6.442;2024-01-16T06:31:37;94720.38;;;-5.60;100.00
62634;BME280;48704;50.534;6.442;2024-01-16T06:34:03;94727.34;;;-5.59;100.00
62634;BME280;48704;50.534;6.442;2024-01-16T06:36:28;94732.41;;;-5.68;100.00
62634;BME280;48704;50.534;6.442;2024-01-16T06:38:54;94733.22;;;-5.71;100.00
62634;BME280;48704;50.534;6.442;2024-01-16T06:41:19;94728.16;;;-5.69;100.00
62634;BME280;48704;50.534;6.442;2024-01-16T06:43:46;94722.31;;;-5.64;100.00
62634;BME280;48704;50.534;6.442;2024-01-16T06:46:11;94726.66;;;-5.84;100.00
62634;BME280;48704;50.534;6.442;2024-01-16T06:48:36;94741.31;;;-5.64;100.00
62634;BME280;48704;50.534;6.442;2024-01-16T06:51:03;94727.41;;;-5.73;100.00
62634;BME280;48704;50.534;6.442;2024-01-16T06:53:29;94737.50;;;-5.77;100.00
62634;BME280;48704;50.534;6.442;2024-01-16T06:55:54;94735.91;;;-5.71;100.00
62634;BME280;48704;50.534;6.442;2024-01-16T06:58:20;94729.31;;;-5.70;100.00
62634;BME280;48704;50.534;6.442;2024-01-16T07:00:46;94728.94;;;-5.68;100.00
62634;BME280;48704;50.534;6.442;2024-01-16T07:03:13;94732.03;;;-5.70;100.00
62634;BME280;48704;50.534;6.442;2024-01-16T07:05:39;94732.41;;;-5.68;100.00
62634;BME280;48704;50.534;6.442;2024-01-16T07:08:06;94732.81;;;-5.66;100.00
62634;BME280;48704;50.534;6.442;2024-01-16T07:10:31;94735.91;;;-5.64;100.00
62634;BME280;48704;50.534;6.442;2024-01-16T07:12:57;94738.22;;;-5.66;100.00
62634;BME280;48704;50.534;6.442;2024-01-16T07:15:22;94737.44;;;-5.63;100.00
62634;BME280;48704;50.534;6.442;2024-01-16T07:17:47;94726.59;;;-5.63;100.00
62634;BME280;48704;50.534;6.442;2024-01-16T07:20:13;94734.34;;;-5.61;100.00
62634;BME280;48704;50.534;6.442;2024-01-16T07:22:38;94723.50;;;-5.65;100.00
62634;BME280;48704;50.534;6.442;2024-01-16T07:25:05;94720.41;;;-5.67;100.00
62634;BME280;48704;50.534;6.442;2024-01-16T07:27:30;94736.69;;;-5.67;100.00
62634;BME280;48704;50.534;6.442;2024-01-16T07:29:56;94728.53;;;-5.63;100.00
62634;BME280;48704;50.534;6.442;2024-01-16T07:32:22;94727.69;;;-5.57;100.00
62634;BME280;48704;50.534;6.442;2024-01-16T07:34:47;94732.72;;;-5.55;100.00
62634;BME280;48704;50.534;6.442;2024-01-16T07:37:12;94736.59;;;-5.53;100.00
62634;BME280;48704;50.534;6.442;2024-01-16T07:39:37;94730.00;;;-5.52;100.00
62634;BME280;48704;50.534;6.442;2024-01-16T07:42:03;94731.53;;;-5.44;100.00
62634;BME280;48704;50.534;6.442;2024-01-16T07:44:28;94729.56;;;-5.36;100.00
62634;BME280;48704;50.534;6.442;2024-01-16T07:46:54;94734.16;;;-5.29;100.00
62634;BME280;48704;50.534;6.442;2024-01-16T07:49:19;94736.47;;;-5.24;100.00
62634;BME280;48704;50.534;6.442;2024-01-16T07:51:45;94734.88;;;-5.18;100.00
62634;BME280;48704;50.534;6.442;2024-01-16T07:54:10;94737.16;;;-5.13;100.00
62634;BME280;48704;50.534;6.442;2024-01-16T07:56:38;94738.31;;;-5.11;100.00
62634;BME280;48704;50.534;6.442;2024-01-16T07:59:03;94743.31;;;-5.06;100.00
62634;BME280;48704;50.534;6.442;2024-01-16T08:01:29;94742.97;;;-5.11;100.00
62634;BME280;48704;50.534;6.442;2024-01-16T08:03:55;94746.06;;;-5.09;100.00
62634;BME280;48704;50.534;6.442;2024-01-16T08:06:21;94748.00;;;-5.06;100.00
62634;BME280;48704;50.534;6.442;2024-01-16T08:08:47;94747.25;;;-5.14;100.00
62634;BME280;48704;50.534;6.442;2024-01-16T08:11:12;94739.47;;;-5.08;100.00
62634;BME280;48704;50.534;6.442;2024-01-16T08:13:37;94737.91;;;-5.09;100.00
62634;BME280;48704;50.534;6.442;2024-01-16T08:16:04;94736.38;;;-5.10;100.00
62634;BME280;48704;50.534;6.442;2024-01-16T08:18:30;94737.13;;;-5.06;100.00
62634;BME280;48704;50.534;6.442;2024-01-16T08:20:57;94753.41;;;-5.06;100.00
62634;BME280;48704;50.534;6.442;2024-01-16T08:23:22;94745.22;;;-4.99;100.00
62634;BME280;48704;50.534;6.442;2024-01-16T08:25:48;94754.91;;;-4.94;100.00
62634;BME280;48704;50.534;6.442;2024-01-16T08:28:14;94754.94;;;-4.98;100.00
62634;BME280;48704;50.534;6.442;2024-01-16T08:30:40;94747.88;;;-4.85;100.00
62634;BME280;48704;50.534;6.442;2024-01-16T08:33:06;94750.88;;;-4.76;100.00
62634;BME280;48704;50.534;6.442;2024-01-16T08:35:31;94744.59;;;-4.65;100.00
62634;BME280;48704;50.534;6.442;2024-01-16T08:37:56;94752.31;;;-4.57;100.00
62634;BME280;48704;50.534;6.442;2024-01-16T08:40:22;94747.19;;;-4.48;100.00
62634;BME280;48704;50.534;6.442;2024-01-16T08:42:47;94747.44;;;-4.35;100.00
62634;BME280;48704;50.534;6.442;2024-01-16T08:45:17;94741.09;;;-4.18;100.00
62634;BME280;48704;50.534;6.442;2024-01-16T08:47:42;94744.09;;;-4.09;100.00
62634;BME280;48704;50.534;6.442;2024-01-16T08:50:07;94749.19;;;-4.11;100.00
62634;BME280;48704;50.534;6.442;2024-01-16T08:52:34;94749.63;;;-4.16;100.00
62634;BME280;48704;50.534;6.442;2024-01-16T08:54:59;94747.28;;;-4.17;100.00
62634;BME280;48704;50.534;6.442;2024-01-16T08:57:25;94751.16;;;-4.15;100.00
62634;BME280;48704;50.534;6.442;2024-01-16T08:59:51;94748.00;;;-4.10;100.00
62634;BME280;48704;50.534;6.442;2024-01-16T09:02:17;94733.94;;;-4.05;100.00
62634;BME280;48704;50.534;6.442;2024-01-16T09:04:42;94739.59;;;-3.88;100.00
62634;BME280;48704;50.534;6.442;2024-01-16T09:07:07;94754.50;;;-3.66;100.00
62634;BME280;48704;50.534;6.442;2024-01-16T09:09:33;94754.47;;;-3.62;100.00
62634;BME280;48704;50.534;6.442;2024-01-16T09:11:58;94743.88;;;-3.23;100.00
62634;BME280;48704;50.534;6.442;2024-01-16T09:14:24;94740.25;;;-3.43;100.00
62634;BME280;48704;50.534;6.442;2024-01-16T09:16:50;94753.09;;;-3.44;100.00
62634;BME280;48704;50.534;6.442;2024-01-16T09:19:18;94757.72;;;-3.41;100.00
62634;BME280;48704;50.534;6.442;2024-01-16T09:21:43;94761.78;;;-3.56;100.00
62634;BME280;48704;50.534;6.442;2024-01-16T09:24:08;94757.59;;;-3.64;100.00
62634;BME280;48704;50.534;6.442;2024-01-16T09:26:34;94757.16;;;-3.59;100.00
62634;BME280;48704;50.534;6.442;2024-01-16T09:28:59;94760.91;;;-3.46;100.00
62634;BME280;48704;50.534;6.442;2024-01-16T09:31:25;94757.28;;;-3.35;100.00
62634;BME280;48704;50.534;6.442;2024-01-16T09:33:50;94761.31;;;-3.47;100.00
62634;BME280;48704;50.534;6.442;2024-01-16T09:36:15;94759.00;;;-3.49;100.00
62634;BME280;48704;50.534;6.442;2024-01-16T09:38:41;94748.91;;;-3.52;100.00
62634;BME280;48704;50.534;6.442;2024-01-16T09:41:06;94759.81;;;-3.52;100.00
62634;BME280;48704;50.534;6.442;2024-01-16T09:43:32;94753.44;;;-3.72;100.00
62634;BME280;48704;50.534;6.442;2024-01-16T09:46:00;94763.84;;;-3.67;100.00
62634;BME280;48704;50.534;6.442;2024-01-16T09:48:30;94757.53;;;-3.57;100.00
62634;BME280;48704;50.534;6.442;2024-01-16T09:50:55;94765.41;;;-3.66;100.00
62634;BME280;48704;50.534;6.442;2024-01-16T09:53:21;94756.50;;;-3.70;100.00
62634;BME280;48704;50.534;6.442;2024-01-16T09:55:48;94748.03;;;-3.42;100.00
62634;BME280;48704;50.534;6.442;2024-01-16T09:58:14;94751.09;;;-3.40;100.00
62634;BME280;48704;50.534;6.442;2024-01-16T10:00:43;94744.66;;;-3.53;100.00
62634;BME280;48704;50.534;6.442;2024-01-16T10:03:11;94746.19;;;-3.21;100.00
62634;BME280;48704;50.534;6.442;2024-01-16T10:05:40;94742.19;;;-3.13;100.00
62634;BME280;48704;50.534;6.442;2024-01-16T10:08:06;94748.63;;;-3.30;100.00
62634;BME280;48704;50.534;6.442;2024-01-16T10:10:33;94746.19;;;-3.21;100.00
62634;BME280;48704;50.534;6.442;2024-01-16T10:12:58;94740.50;;;-3.04;100.00
62634;BME280;48704;50.534;6.442;2024-01-16T10:15:24;94740.56;;;-3.07;100.00
62634;BME280;48704;50.534;6.442;2024-01-16T10:17:50;94748.38;;;-3.09;100.00
62634;BME280;48704;50.534;6.442;2024-01-16T10:20:15;94744.25;;;-2.94;100.00
62634;BME280;48704;50.534;6.442;2024-01-16T10:22:55;94737.00;;;-2.77;100.00
62634;BME280;48704;50.534;6.442;2024-01-16T10:25:21;94728.25;;;-2.65;100.00
62634;BME280;48704;50.534;6.442;2024-01-16T10:27:48;94719.09;;;-2.28;100.00
62634;BME280;48704;50.534;6.442;2024-01-16T10:30:13;94723.91;;;-2.16;100.00
62634;BME280;48704;50.534;6.442;2024-01-16T10:32:42;94720.00;;;-1.52;100.00
62634;BME280;48704;50.534;6.442;2024-01-16T10:35:12;94708.63;;;-2.10;100.00
62634;BME280;48704;50.534;6.442;2024-01-16T10:37:42;94707.34;;;-2.25;100.00
62634;BME280;48704;50.534;6.442;2024-01-16T10:40:08;94706.97;;;-2.27;100.00
62634;BME280;48704;50.534;6.442;2024-01-16T10:42:34;94697.44;;;-2.62;100.00
62634;BME280;48704;50.534;6.442;2024-01-16T10:44:59;94697.03;;;-2.60;100.00
62634;BME280;48704;50.534;6.442;2024-01-16T10:47:24;94692.56;;;-2.51;100.00
62634;BME280;48704;50.534;6.442;2024-01-16T10:49:50;94697.03;;;-2.60;100.00
62634;BME280;48704;50.534;6.442;2024-01-16T10:52:17;94704.34;;;-2.57;100.00
62634;BME280;48704;50.534;6.442;2024-01-16T10:54:43;94701.66;;;-1.71;100.00
62634;BME280;48704;50.534;6.442;2024-01-16T10:57:13;94695.41;;;-1.72;100.00
62634;BME280;48704;50.534;6.442;2024-01-16T10:59:45;94706.75;;;-2.36;100.00
62634;BME280;48704;50.534;6.442;2024-01-16T11:02:14;94700.09;;;-2.58;100.00
62634;BME280;48704;50.534;6.442;2024-01-16T11:04:42;94696.44;;;-2.25;100.00
62634;BME280;48704;50.534;6.442;2024-01-16T11:07:08;94690.59;;;-2.50;100.00
62634;BME280;48704;50.534;6.442;2024-01-16T11:09:34;94694.06;;;-2.70;100.00
62634;BME280;48704;50.534;6.442;2024-01-16T11:12:01;94696.41;;;-2.72;100.00
62634;BME280;48704;50.534;6.442;2024-01-16T11:14:30;94685.56;;;-2.28;100.00
62634;BME280;48704;50.534;6.442;2024-01-16T11:16:57;94704.13;;;-2.43;100.00
62634;BME280;48704;50.534;6.442;2024-01-16T11:19:23;94685.72;;;-2.86;100.00
62634;BME280;48704;50.534;6.442;2024-01-16T11:21:52;94686.34;;;-2.75;100.00
62634;BME280;48704;50.534;6.442;2024-01-16T11:24:17;94689.41;;;-2.73;100.00
62634;BME280;48704;50.534;6.442;2024-01-16T11:26:43;94688.94;;;-2.67;100.00
62634;BME280;48704;50.534;6.442;2024-01-16T11:31:52;94678.00;;;-2.91;100.00
62634;BME280;48704;50.534;6.442;2024-01-16T11:37:07;94675.41;;;-3.25;100.00
62634;BME280;48704;50.534;6.442;2024-01-16T11:39:33;94690.41;;;-3.13;100.00
62634;BME280;48704;50.534;6.442;2024-01-16T11:41:59;94691.41;;;-3.00;100.00
62634;BME280;48704;50.534;6.442;2024-01-16T11:47:05;94689.97;;;-3.08;100.00
62634;BME280;48704;50.534;6.442;2024-01-16T11:49:31;94681.31;;;-3.03;100.00
62634;BME280;48704;50.534;6.442;2024-01-16T11:51:59;94672.53;;;-3.14;100.00
62634;BME280;48704;50.534;6.442;2024-01-16T11:54:25;94664.69;;;-3.35;100.00
62634;BME280;48704;50.534;6.442;2024-01-16T11:57:01;94676.22;;;-3.28;100.00
62634;BME280;48704;50.534;6.442;2024-01-16T12:00:00;94668.16;;;-3.08;100.00
62634;BME280;48704;50.534;6.442;2024-01-16T12:02:41;94668.09;;;-3.31;100.00
62634;BME280;48704;50.534;6.442;2024-01-16T12:05:11;94675.09;;;-3.30;100.00
62634;BME280;48704;50.534;6.442;2024-01-16T12:07:52;94672.56;;;-3.45;100.00
62634;BME280;48704;50.534;6.442;2024-01-16T12:10:22;94671.41;;;-3.44;100.00
62634;BME280;48704;50.534;6.442;2024-01-16T12:12:49;94661.72;;;-3.21;100.00
62634;BME280;48704;50.534;6.442;2024-01-16T12:15:16;94659.72;;;-3.17;100.00
62634;BME280;48704;50.534;6.442;2024-01-16T12:17:55;94666.00;;;-3.20;100.00
62634;BME280;48704;50.534;6.442;2024-01-16T12:20:22;94659.88;;;-3.28;100.00
62634;BME280;48704;50.534;6.442;2024-01-16T12:23:01;94668.34;;;-3.49;100.00
62634;BME280;48704;50.534;6.442;2024-01-16T12:25:31;94656.72;;;-3.53;100.00
62634;BME280;48704;50.534;6.442;2024-01-16T12:28:01;94650.34;;;-3.40;100.00
62634;BME280;48704;50.534;6.442;2024-01-16T12:30:31;94647.66;;;-2.93;100.00
62634;BME280;48704;50.534;6.442;2024-01-16T12:33:10;94640.78;;;-2.11;100.00
62634;BME280;48704;50.534;6.442;2024-01-16T12:35:37;94635.81;;;-2.83;100.00
62634;BME280;48704;50.534;6.442;2024-01-16T12:38:05;94644.00;;;-2.36;100.00
62634;BME280;48704;50.534;6.442;2024-01-16T12:40:31;94630.59;;;-2.50;100.00
62634;BME280;48704;50.534;6.442;2024-01-16T12:42:57;94628.75;;;-2.33;100.00
62634;BME280;48704;50.534;6.442;2024-01-16T12:45:22;94630.34;;;-1.57;100.00
62634;BME280;48704;50.534;6.442;2024-01-16T12:47:55;94627.56;;;-1.37;100.00
62634;BME280;48704;50.534;6.442;2024-01-16T12:50:25;94609.25;;;-0.88;100.00
62634;BME280;48704;50.534;6.442;2024-01-16T12:53:05;94606.53;;;-0.88;100.00